sensor_id;sensor_type;location;lat;lon;timestamp;pressure;altitude;pressure_sealevel;temperature;humidity
32735;BME280;19112;51.076;3.706;2023-02-14T00:00:19;103122.91;;;5.70;70.60
32735;BME280;19112;51.076;3.706;2023-02-14T00:02:47;102781.25;;;3.80;70.33
32735;BME280;19112;51.076;3.706;2023-02-14T00:05:13;103318.81;;;6.81;70.35
32735;BME280;19112;51.076;3.706;2023-02-14T00:07:40;102999.63;;;5.03;69.88
32735;BME280;19112;51.076;3.706;2023-02-14T00:10:07;103242.69;;;6.27;70.06
32735;BME280;19112;51.076;3.706;2023-02-14T00:12:33;103327.81;;;6.74;70.27
32735;BME280;19112;51.076;3.706;2023-02-14T00:14:59;102981.56;;;4.86;70.33
32735;BME280;19112;51.076;3.706;2023-02-14T00:17:43;103172.22;;;5.88;70.22
32735;BME280;19112;51.076;3.706;2023-02-14T00:20:10;103311.31;;;6.65;70.73
32735;BME280;19112;51.076;3.706;2023-02-14T00:22:35;103308.72;;;6.65;70.75
32735;BME280;19112;51.076;3.706;2023-02-14T00:25:01;103267.53;;;6.42;70.63
32735;BME280;19112;51.076;3.706;2023-02-14T00:27:27;103234.38;;;6.31;70.50
32735;BME280;19112;51.076;3.706;2023-02-14T00:29:53;103210.56;;;6.18;70.45
32735;BME280;19112;51.076;3.706;2023-02-14T00:32:19;103301.97;;;6.67;70.33
32735;BME280;19112;51.076;3.706;2023-02-14T00:34:45;103274.50;;;6.52;70.49
32735;BME280;19112;51.076;3.706;2023-02-14T00:37:11;102926.28;;;4.59;70.39
32735;BME280;19112;51.076;3.706;2023-02-14T00:39:36;102983.53;;;4.88;70.33
32735;BME280;19112;51.076;3.706;2023-02-14T00:42:02;103177.09;;;5.93;70.51
32735;BME280;19112;51.076;3.706;2023-02-14T00:44:28;103293.97;;;6.55;70.58
32735;BME280;19112;51.076;3.706;2023-02-14T00:46:54;103234.75;;;6.25;70.42
32735;BME280;19112;51.076;3.706;2023-02-14T00:49:20;103208.84;;;6.08;70.62
32735;BME280;19112;51.076;3.706;2023-02-14T00:51:45;103221.16;;;6.19;70.40
32735;BME280;19112;51.076;3.706;2023-02-14T00:54:11;103290.69;;;6.58;70.13
32735;BME280;19112;51.076;3.706;2023-02-14T00:56:37;102460.38;;;1.83;70.25
32735;BME280;19112;51.076;3.706;2023-02-14T00:59:03;103133.53;;;5.63;70.33
32735;BME280;19112;51.076;3.706;2023-02-14T01:01:29;102999.69;;;4.94;70.13
32735;BME280;19112;51.076;3.706;2023-02-14T01:03:56;103231.84;;;6.22;70.48
32735;BME280;19112;51.076;3.706;2023-02-14T01:06:23;103291.44;;;6.47;70.67
32735;BME280;19112;51.076;3.706;2023-02-14T01:08:49;103123.34;;;5.56;70.26
32735;BME280;19112;51.076;3.706;2023-02-14T01:11:19;102958.47;;;4.70;70.25
32735;BME280;19112;51.076;3.706;2023-02-14T01:13:47;103202.69;;;5.97;70.51
32735;BME280;19112;51.076;3.706;2023-02-14T01:16:18;103291.56;;;6.48;70.16
32735;BME280;19112;51.076;3.706;2023-02-14T01:18:44;103285.81;;;6.42;70.61
32735;BME280;19112;51.076;3.706;2023-02-14T01:21:21;103303.16;;;6.42;70.73
32735;BME280;19112;51.076;3.706;2023-02-14T01:23:50;102895.84;;;4.20;70.75
32735;BME280;19112;51.076;3.706;2023-02-14T01:26:18;102937.88;;;4.44;70.77
32735;BME280;19112;51.076;3.706;2023-02-14T01:28:44;103069.19;;;5.14;70.91
32735;BME280;19112;51.076;3.706;2023-02-14T01:31:22;103209.31;;;5.94;71.18
32735;BME280;19112;51.076;3.706;2023-02-14T01:33:49;103287.50;;;6.42;70.74
32735;BME280;19112;51.076;3.706;2023-02-14T01:36:20;103288.00;;;6.38;70.59
32735;BME280;19112;51.076;3.706;2023-02-14T01:38:47;103173.44;;;5.72;70.54
32735;BME280;19112;51.076;3.706;2023-02-14T01:41:15;102878.25;;;3.99;70.40
32735;BME280;19112;51.076;3.706;2023-02-14T01:46:34;103297.88;;;6.32;71.20
32735;BME280;19112;51.076;3.706;2023-02-14T01:49:17;103250.16;;;6.03;71.50
32735;BME280;19112;51.076;3.706;2023-02-14T01:52:22;103196.41;;;5.76;71.22
32735;BME280;19112;51.076;3.706;2023-02-14T01:55:07;103129.75;;;5.41;71.33
32735;BME280;19112;51.076;3.706;2023-02-14T01:57:46;103290.06;;;6.32;71.15
32735;BME280;19112;51.076;3.706;2023-02-14T02:00:14;103246.22;;;5.98;71.24
32735;BME280;19112;51.076;3.706;2023-02-14T02:03:00;103020.06;;;4.80;70.71
32735;BME280;19112;51.076;3.706;2023-02-14T02:05:26;103074.63;;;5.07;70.56
32735;BME280;19112;51.076;3.706;2023-02-14T02:07:55;103151.44;;;5.50;70.61
32735;BME280;19112;51.076;3.706;2023-02-14T02:10:22;103131.34;;;5.39;70.63
32735;BME280;19112;51.076;3.706;2023-02-14T02:12:51;103072.94;;;5.08;70.62
32735;BME280;19112;51.076;3.706;2023-02-14T02:15:18;102730.25;;;3.15;70.56
32735;BME280;19112;51.076;3.706;2023-02-14T02:24:16;103288.97;;;6.19;71.16
32735;BME280;19112;51.076;3.706;2023-02-14T02:27:11;103284.25;;;6.15;71.17
32735;BME280;19112;51.076;3.706;2023-02-14T02:33:26;103200.09;;;5.60;71.42
32735;BME280;19112;51.076;3.706;2023-02-14T02:36:14;103228.72;;;5.78;71.65
32735;BME280;19112;51.076;3.706;2023-02-14T02:42:30;103286.00;;;6.06;72.46
32735;BME280;19112;51.076;3.706;2023-02-14T02:48:04;102992.56;;;4.54;71.61
32735;BME280;19112;51.076;3.706;2023-02-14T02:50:44;103273.88;;;6.07;71.41
32735;BME280;19112;51.076;3.706;2023-02-14T02:56:18;103219.16;;;5.69;71.75
32735;BME280;19112;51.076;3.706;2023-02-14T02:59:28;103234.00;;;5.70;71.59
32735;BME280;19112;51.076;3.706;2023-02-14T03:02:22;103270.59;;;5.99;71.45
32735;BME280;19112;51.076;3.706;2023-02-14T03:04:56;103230.44;;;5.78;71.41
32735;BME280;19112;51.076;3.706;2023-02-14T03:07:33;103129.56;;;5.10;71.53
32735;BME280;19112;51.076;3.706;2023-02-14T03:26:37;103258.47;;;5.81;71.44
32735;BME280;19112;51.076;3.706;2023-02-14T03:32:48;103262.13;;;5.83;71.74
32735;BME280;19112;51.076;3.706;2023-02-14T03:35:39;103220.78;;;5.58;71.86
32735;BME280;19112;51.076;3.706;2023-02-14T03:40:51;103100.66;;;4.88;72.07
32735;BME280;19112;51.076;3.706;2023-02-14T03:43:44;103268.25;;;5.83;72.03
32735;BME280;19112;51.076;3.706;2023-02-14T03:46:36;103255.78;;;5.89;71.81
32735;BME280;19112;51.076;3.706;2023-02-14T03:49:09;103186.72;;;5.46;71.48
32735;BME280;19112;51.076;3.706;2023-02-14T03:51:37;103145.81;;;5.26;71.97
32735;BME280;19112;51.076;3.706;2023-02-14T03:54:08;103233.97;;;5.60;71.73
32735;BME280;19112;51.076;3.706;2023-02-14T03:56:45;102963.59;;;4.22;71.96
32735;BME280;19112;51.076;3.706;2023-02-14T03:59:23;103153.78;;;5.28;72.17
32735;BME280;19112;51.076;3.706;2023-02-14T04:02:10;103242.19;;;5.83;71.93
32735;BME280;19112;51.076;3.706;2023-02-14T04:04:43;102909.78;;;3.93;71.89
32735;BME280;19112;51.076;3.706;2023-02-14T04:07:28;102940.72;;;4.09;71.95
32735;BME280;19112;51.076;3.706;2023-02-14T04:09:54;103238.66;;;5.64;72.36
32735;BME280;19112;51.076;3.706;2023-02-14T04:12:19;103129.56;;;5.10;72.19
32735;BME280;19112;51.076;3.706;2023-02-14T04:14:45;102995.13;;;4.35;71.83
32735;BME280;19112;51.076;3.706;2023-02-14T04:17:11;103125.13;;;5.09;72.15
32735;BME280;19112;51.076;3.706;2023-02-14T04:19:56;103224.75;;;5.44;71.99
32735;BME280;19112;51.076;3.706;2023-02-14T04:22:21;103254.13;;;5.71;72.52
32735;BME280;19112;51.076;3.706;2023-02-14T04:24:47;103052.59;;;4.66;72.02
32735;BME280;19112;51.076;3.706;2023-02-14T04:27:13;103244.81;;;5.45;72.39
32735;BME280;19112;51.076;3.706;2023-02-14T04:29:48;102809.81;;;3.33;72.03
32735;BME280;19112;51.076;3.706;2023-02-14T04:32:19;103154.28;;;5.24;72.31
32735;BME280;19112;51.076;3.706;2023-02-14T04:34:45;103176.66;;;5.41;71.82
32735;BME280;19112;51.076;3.706;2023-02-14T04:37:12;102908.06;;;3.84;71.92
32735;BME280;19112;51.076;3.706;2023-02-14T04:39:38;103108.75;;;4.91;72.38
32735;BME280;19112;51.076;3.706;2023-02-14T04:42:04;102974.28;;;3.98;72.62
32735;BME280;19112;51.076;3.706;2023-02-14T04:44:30;103236.97;;;5.64;73.00
32735;BME280;19112;51.076;3.706;2023-02-14T04:46:59;103089.19;;;4.86;72.85
32735;BME280;19112;51.076;3.706;2023-02-14T04:49:25;103232.84;;;5.66;73.39
32735;BME280;19112;51.076;3.706;2023-02-14T04:51:50;103166.03;;;5.29;73.48
32735;BME280;19112;51.076;3.706;2023-02-14T04:54:16;103094.19;;;4.93;72.91
32735;BME280;19112;51.076;3.706;2023-02-14T04:56:42;103260.50;;;5.74;73.06
32735;BME280;19112;51.076;3.706;2023-02-14T04:59:08;102922.03;;;3.94;72.54
32735;BME280;19112;51.076;3.706;2023-02-14T05:01:34;103238.59;;;5.72;73.05
32735;BME280;19112;51.076;3.706;2023-02-14T05:04:00;103021.88;;;4.43;72.76
32735;BME280;19112;51.076;3.706;2023-02-14T05:06:26;103149.06;;;5.24;72.49
32735;BME280;19112;51.076;3.706;2023-02-14T05:08:54;103194.66;;;5.48;72.30
32735;BME280;19112;51.076;3.706;2023-02-14T05:11:22;102965.63;;;4.16;72.48
32735;BME280;19112;51.076;3.706;2023-02-14T05:13:48;103127.31;;;5.05;72.73
32735;BME280;19112;51.076;3.706;2023-02-14T05:16:14;103222.47;;;5.58;72.94
32735;BME280;19112;51.076;3.706;2023-02-14T05:18:40;103064.13;;;4.59;72.93
32735;BME280;19112;51.076;3.706;2023-02-14T05:21:06;103098.03;;;4.88;72.69
32735;BME280;19112;51.076;3.706;2023-02-14T05:23:32;103150.81;;;5.15;72.52
32735;BME280;19112;51.076;3.706;2023-02-14T05:25:58;102955.28;;;4.07;72.13
32735;BME280;19112;51.076;3.706;2023-02-14T05:28:23;102907.75;;;3.81;71.98
32735;BME280;19112;51.076;3.706;2023-02-14T05:30:50;102935.22;;;3.87;72.32
32735;BME280;19112;51.076;3.706;2023-02-14T05:33:16;103229.38;;;5.57;72.18
32735;BME280;19112;51.076;3.706;2023-02-14T05:35:42;102957.00;;;3.98;71.92
32735;BME280;19112;51.076;3.706;2023-02-14T05:38:08;102659.06;;;2.12;72.25
32735;BME280;19112;51.076;3.706;2023-02-14T05:40:34;103239.72;;;5.47;72.57
32735;BME280;19112;51.076;3.706;2023-02-14T05:43:00;102920.53;;;3.60;71.98
32735;BME280;19112;51.076;3.706;2023-02-14T05:45:26;103094.84;;;4.63;72.27
32735;BME280;19112;51.076;3.706;2023-02-14T05:47:52;103234.53;;;5.47;71.78
32735;BME280;19112;51.076;3.706;2023-02-14T05:50:18;103108.72;;;4.72;71.44
32735;BME280;19112;51.076;3.706;2023-02-14T05:52:44;103234.88;;;5.41;71.36
32735;BME280;19112;51.076;3.706;2023-02-14T05:55:09;103038.00;;;4.30;70.96
32735;BME280;19112;51.076;3.706;2023-02-14T05:57:36;102872.75;;;3.31;71.38
32735;BME280;19112;51.076;3.706;2023-02-14T06:00:04;103238.03;;;5.29;71.65
32735;BME280;19112;51.076;3.706;2023-02-14T06:02:31;103030.94;;;4.10;72.01
32735;BME280;19112;51.076;3.706;2023-02-14T06:04:57;103281.88;;;5.24;71.58
32735;BME280;19112;51.076;3.706;2023-02-14T06:07:23;102953.84;;;3.64;71.38
32735;BME280;19112;51.076;3.706;2023-02-14T06:09:49;103043.44;;;4.14;71.63
32735;BME280;19112;51.076;3.706;2023-02-14T06:12:14;103236.06;;;5.26;71.39
32735;BME280;19112;51.076;3.706;2023-02-14T06:14:40;103014.34;;;4.00;71.42
32735;BME280;19112;51.076;3.706;2023-02-14T06:17:08;103151.78;;;4.69;71.60
32735;BME280;19112;51.076;3.706;2023-02-14T06:19:35;103240.56;;;5.18;71.27
32735;BME280;19112;51.076;3.706;2023-02-14T06:22:00;103156.53;;;4.64;71.88
32735;BME280;19112;51.076;3.706;2023-02-14T06:24:26;103247.28;;;5.16;71.97
32735;BME280;19112;51.076;3.706;2023-02-14T06:26:52;102923.69;;;3.39;71.32
32735;BME280;19112;51.076;3.706;2023-02-14T06:29:18;103038.13;;;4.04;71.81
32735;BME280;19112;51.076;3.706;2023-02-14T06:31:44;103228.22;;;5.07;71.89
32735;BME280;19112;51.076;3.706;2023-02-14T06:34:10;102856.84;;;3.00;71.89
32735;BME280;19112;51.076;3.706;2023-02-14T06:36:36;102918.06;;;3.34;72.24
32735;BME280;19112;51.076;3.706;2023-02-14T06:39:03;103185.28;;;4.93;72.38
32735;BME280;19112;51.076;3.706;2023-02-14T06:41:29;102897.81;;;3.30;72.27
32735;BME280;19112;51.076;3.706;2023-02-14T06:43:55;102690.56;;;2.25;72.27
32735;BME280;19112;51.076;3.706;2023-02-14T06:46:21;103018.47;;;3.98;72.26
32735;BME280;19112;51.076;3.706;2023-02-14T06:48:47;103143.44;;;4.73;71.88
32735;BME280;19112;51.076;3.706;2023-02-14T06:51:13;103211.88;;;4.99;71.79
32735;BME280;19112;51.076;3.706;2023-02-14T06:53:39;103165.47;;;4.77;71.96
32735;BME280;19112;51.076;3.706;2023-02-14T06:56:05;103213.13;;;4.94;71.58
32735;BME280;19112;51.076;3.706;2023-02-14T06:58:31;102967.16;;;3.59;72.12
32735;BME280;19112;51.076;3.706;2023-02-14T07:00:58;103162.09;;;4.78;72.09
32735;BME280;19112;51.076;3.706;2023-02-14T07:03:25;103149.00;;;4.67;72.25
32735;BME280;19112;51.076;3.706;2023-02-14T07:05:52;102894.59;;;3.24;71.78
32735;BME280;19112;51.076;3.706;2023-02-14T07:08:18;103107.81;;;4.44;71.78
32735;BME280;19112;51.076;3.706;2023-02-14T07:10:45;103059.53;;;4.10;72.05
32735;BME280;19112;51.076;3.706;2023-02-14T07:13:11;103150.22;;;4.71;72.00
32735;BME280;19112;51.076;3.706;2023-02-14T07:15:37;102991.03;;;3.82;71.59
32735;BME280;19112;51.076;3.706;2023-02-14T07:18:03;103077.31;;;4.33;71.75
32735;BME280;19112;51.076;3.706;2023-02-14T07:20:29;103109.28;;;4.60;71.73
32735;BME280;19112;51.076;3.706;2023-02-14T07:22:55;103149.41;;;4.81;72.04
32735;BME280;19112;51.076;3.706;2023-02-14T07:25:21;103254.78;;;5.41;71.84
32735;BME280;19112;51.076;3.706;2023-02-14T07:27:47;103158.19;;;4.91;71.63
32735;BME280;19112;51.076;3.706;2023-02-14T07:30:13;103051.00;;;4.30;71.54
32735;BME280;19112;51.076;3.706;2023-02-14T07:32:40;102968.66;;;3.93;71.45
32735;BME280;19112;51.076;3.706;2023-02-14T07:35:07;102705.25;;;2.52;71.62
32735;BME280;19112;51.076;3.706;2023-02-14T07:37:34;102900.75;;;3.52;71.80
32735;BME280;19112;51.076;3.706;2023-02-14T07:40:00;103072.41;;;4.55;71.89
32735;BME280;19112;51.076;3.706;2023-02-14T07:42:26;102910.72;;;3.66;71.64
32735;BME280;19112;51.076;3.706;2023-02-14T07:44:52;102653.59;;;2.08;71.78
32735;BME280;19112;51.076;3.706;2023-02-14T07:47:17;103247.75;;;5.59;72.10
32735;BME280;19112;51.076;3.706;2023-02-14T07:49:43;103145.28;;;5.02;71.95
32735;BME280;19112;51.076;3.706;2023-02-14T07:52:09;102948.94;;;3.95;72.28
32735;BME280;19112;51.076;3.706;2023-02-14T07:54:35;103206.78;;;5.47;72.34
32735;BME280;19112;51.076;3.706;2023-02-14T07:57:03;102879.56;;;3.66;72.17
32735;BME280;19112;51.076;3.706;2023-02-14T07:59:29;103154.28;;;5.24;72.72
32735;BME280;19112;51.076;3.706;2023-02-14T08:01:55;103244.94;;;5.85;72.33
32735;BME280;19112;51.076;3.706;2023-02-14T08:04:21;103243.66;;;5.90;72.34
32735;BME280;19112;51.076;3.706;2023-02-14T08:06:51;103019.47;;;4.73;72.39
32735;BME280;19112;51.076;3.706;2023-02-14T08:09:17;103163.03;;;5.53;72.42
32735;BME280;19112;51.076;3.706;2023-02-14T08:11:55;103173.41;;;5.62;72.41
32735;BME280;19112;51.076;3.706;2023-02-14T08:14:40;103138.41;;;5.50;72.58
32735;BME280;19112;51.076;3.706;2023-02-14T08:17:06;103047.69;;;5.07;72.75
32735;BME280;19112;51.076;3.706;2023-02-14T08:19:33;103241.78;;;6.26;72.91
32735;BME280;19112;51.076;3.706;2023-02-14T08:21:59;103243.88;;;6.30;72.64
32735;BME280;19112;51.076;3.706;2023-02-14T08:24:25;103258.66;;;6.40;72.98
32735;BME280;19112;51.076;3.706;2023-02-14T08:26:51;103172.19;;;6.07;72.52
32735;BME280;19112;51.076;3.706;2023-02-14T08:29:17;103148.06;;;5.99;72.92
32735;BME280;19112;51.076;3.706;2023-02-14T08:31:43;102820.59;;;4.22;72.82
32735;BME280;19112;51.076;3.706;2023-02-14T08:34:10;103241.13;;;6.68;72.95
32735;BME280;19112;51.076;3.706;2023-02-14T08:36:36;103241.66;;;6.74;73.31
32735;BME280;19112;51.076;3.706;2023-02-14T08:39:04;103116.53;;;6.16;73.26
32735;BME280;19112;51.076;3.706;2023-02-14T08:41:30;103079.22;;;6.07;73.72
32735;BME280;19112;51.076;3.706;2023-02-14T08:43:56;102912.09;;;5.24;73.81
32735;BME280;19112;51.076;3.706;2023-02-14T08:46:22;102911.72;;;5.30;73.79
32735;BME280;19112;51.076;3.706;2023-02-14T08:48:48;103248.50;;;7.23;73.88
32735;BME280;19112;51.076;3.706;2023-02-14T08:51:15;103151.72;;;6.81;73.93
32735;BME280;19112;51.076;3.706;2023-02-14T08:53:41;102982.19;;;5.91;73.54
32735;BME280;19112;51.076;3.706;2023-02-14T08:56:12;103163.75;;;7.09;74.20
32735;BME280;19112;51.076;3.706;2023-02-14T08:58:38;103102.66;;;6.67;73.71
32735;BME280;19112;51.076;3.706;2023-02-14T09:01:10;102768.22;;;4.96;73.21
32735;BME280;19112;51.076;3.706;2023-02-14T09:03:36;102971.56;;;6.28;74.13
32735;BME280;19112;51.076;3.706;2023-02-14T09:06:07;103171.91;;;7.45;73.55
32735;BME280;19112;51.076;3.706;2023-02-14T09:08:35;102720.19;;;5.03;73.06
32735;BME280;19112;51.076;3.706;2023-02-14T09:11:17;103196.72;;;7.60;73.06
32735;BME280;19112;51.076;3.706;2023-02-14T09:13:44;103221.00;;;7.79;73.31
32735;BME280;19112;51.076;3.706;2023-02-14T09:16:12;103140.97;;;7.39;73.12
32735;BME280;19112;51.076;3.706;2023-02-14T09:18:39;103154.13;;;7.51;73.12
32735;BME280;19112;51.076;3.706;2023-02-14T09:21:26;103148.34;;;7.65;73.39
32735;BME280;19112;51.076;3.706;2023-02-14T09:23:52;103188.09;;;7.93;72.75
32735;BME280;19112;51.076;3.706;2023-02-14T09:26:18;103227.91;;;8.21;72.88
32735;BME280;19112;51.076;3.706;2023-02-14T09:28:44;102916.19;;;6.53;72.57
32735;BME280;19112;51.076;3.706;2023-02-14T09:31:21;103255.16;;;8.45;72.99
32735;BME280;19112;51.076;3.706;2023-02-14T09:33:49;102770.66;;;5.96;72.50
32735;BME280;19112;51.076;3.706;2023-02-14T09:36:34;103021.44;;;7.37;72.23
32735;BME280;19112;51.076;3.706;2023-02-14T09:39:18;103227.00;;;8.53;72.36
32735;BME280;19112;51.076;3.706;2023-02-14T09:44:42;103210.06;;;8.59;71.51
32735;BME280;19112;51.076;3.706;2023-02-14T09:50:00;103161.84;;;8.46;71.48
32735;BME280;19112;51.076;3.706;2023-02-14T09:52:29;102970.94;;;7.48;71.47
32735;BME280;19112;51.076;3.706;2023-02-14T09:54:58;102973.22;;;7.55;71.24
32735;BME280;19112;51.076;3.706;2023-02-14T09:57:44;103149.75;;;8.58;71.23
32735;BME280;19112;51.076;3.706;2023-02-14T10:00:35;103197.44;;;8.87;71.08
32735;BME280;19112;51.076;3.706;2023-02-14T10:08:42;103224.78;;;9.25;71.26
32735;BME280;19112;51.076;3.706;2023-02-14T10:11:17;103174.13;;;9.02;70.96
32735;BME280;19112;51.076;3.706;2023-02-14T10:14:14;103219.63;;;9.26;70.69
32735;BME280;19112;51.076;3.706;2023-02-14T10:16:56;103198.91;;;9.17;70.93
32735;BME280;19112;51.076;3.706;2023-02-14T10:19:46;103239.31;;;9.55;70.46
32735;BME280;19112;51.076;3.706;2023-02-14T10:22:26;103211.22;;;9.42;70.26
32735;BME280;19112;51.076;3.706;2023-02-14T10:25:01;103231.34;;;9.65;69.67
32735;BME280;19112;51.076;3.706;2023-02-14T10:27:36;103235.22;;;9.70;69.76
32735;BME280;19112;51.076;3.706;2023-02-14T10:30:21;103217.19;;;9.63;69.94
32735;BME280;19112;51.076;3.706;2023-02-14T10:38:54;103229.63;;;10.01;69.03
32735;BME280;19112;51.076;3.706;2023-02-14T10:41:59;103238.63;;;10.16;69.20
32735;BME280;19112;51.076;3.706;2023-02-14T10:45:12;103239.53;;;10.16;68.83
32735;BME280;19112;51.076;3.706;2023-02-14T10:48:31;103174.53;;;9.89;68.92
32735;BME280;19112;51.076;3.706;2023-02-14T10:51:27;103233.38;;;10.28;68.84
32735;BME280;19112;51.076;3.706;2023-02-14T10:57:16;102950.50;;;9.02;68.31
32735;BME280;19112;51.076;3.706;2023-02-14T11:00:01;103227.19;;;10.51;68.21
32735;BME280;19112;51.076;3.706;2023-02-14T11:02:41;103209.81;;;10.53;68.20
32735;BME280;19112;51.076;3.706;2023-02-14T11:10:49;102937.78;;;9.31;67.21
32735;BME280;19112;51.076;3.706;2023-02-14T11:13:35;103039.44;;;9.95;67.25
32735;BME280;19112;51.076;3.706;2023-02-14T11:16:11;102911.00;;;9.35;67.04
32735;BME280;19112;51.076;3.706;2023-02-14T11:18:39;103058.53;;;10.18;66.82
32735;BME280;19112;51.076;3.706;2023-02-14T11:21:15;103190.97;;;10.83;67.03
32735;BME280;19112;51.076;3.706;2023-02-14T11:23:47;103167.16;;;10.93;66.91
32735;BME280;19112;51.076;3.706;2023-02-14T11:26:22;103076.44;;;10.48;66.63
32735;BME280;19112;51.076;3.706;2023-02-14T11:29:09;103179.41;;;11.06;66.58
32735;BME280;19112;51.076;3.706;2023-02-14T11:31:38;103150.97;;;10.87;66.10
32735;BME280;19112;51.076;3.706;2023-02-14T11:36:47;103150.41;;;11.05;66.08
32735;BME280;19112;51.076;3.706;2023-02-14T11:39:33;103127.06;;;11.09;66.10
32735;BME280;19112;51.076;3.706;2023-02-14T11:42:04;102963.13;;;10.17;66.02
32735;BME280;19112;51.076;3.706;2023-02-14T11:44:33;103155.09;;;11.35;65.72
32735;BME280;19112;51.076;3.706;2023-02-14T11:47:25;103141.53;;;11.42;65.66
32735;BME280;19112;51.076;3.706;2023-02-14T11:49:59;103151.66;;;11.49;65.53
32735;BME280;19112;51.076;3.706;2023-02-14T11:52:32;102993.88;;;10.83;64.36
32735;BME280;19112;51.076;3.706;2023-02-14T11:55:04;102993.06;;;10.84;64.43
32735;BME280;19112;51.076;3.706;2023-02-14T11:57:38;103046.97;;;11.31;64.23
32735;BME280;19112;51.076;3.706;2023-02-14T12:00:18;102850.25;;;10.17;64.38
32735;BME280;19112;51.076;3.706;2023-02-14T12:02:49;103063.63;;;11.44;64.40
32735;BME280;19112;51.076;3.706;2023-02-14T12:05:22;103082.44;;;11.64;64.03
32735;BME280;19112;51.076;3.706;2023-02-14T12:07:54;102978.94;;;11.09;64.01
32735;BME280;19112;51.076;3.706;2023-02-14T12:10:34;102936.47;;;11.02;63.40
32735;BME280;19112;51.076;3.706;2023-02-14T12:15:39;103062.38;;;11.79;63.81
32735;BME280;19112;51.076;3.706;2023-02-14T12:18:54;102926.00;;;11.17;63.15
32735;BME280;19112;51.076;3.706;2023-02-14T12:21:40;103098.84;;;12.14;63.21
32735;BME280;19112;51.076;3.706;2023-02-14T12:24:16;103090.50;;;12.06;63.41
32735;BME280;19112;51.076;3.706;2023-02-14T12:27:08;103037.81;;;11.65;63.57
32735;BME280;19112;51.076;3.706;2023-02-14T12:29:40;103084.69;;;12.12;63.66
32735;BME280;19112;51.076;3.706;2023-02-14T12:32:27;103033.31;;;11.91;63.56
32735;BME280;19112;51.076;3.706;2023-02-14T12:35:14;102966.34;;;11.72;63.06
32735;BME280;19112;51.076;3.706;2023-02-14T12:43:41;102907.69;;;11.60;62.51
32735;BME280;19112;51.076;3.706;2023-02-14T12:49:22;103047.53;;;12.50;62.36
32735;BME280;19112;51.076;3.706;2023-02-14T13:08:59;103064.31;;;12.95;61.19
32735;BME280;19112;51.076;3.706;2023-02-14T13:23:01;102850.06;;;12.07;60.86
32735;BME280;19112;51.076;3.706;2023-02-14T13:25:42;102927.78;;;12.45;60.89
32735;BME280;19112;51.076;3.706;2023-02-14T13:28:15;103037.53;;;13.19;60.78
32735;BME280;19112;51.076;3.706;2023-02-14T13:30:42;102944.69;;;12.78;60.44
32735;BME280;19112;51.076;3.706;2023-02-14T13:33:39;103036.88;;;13.21;60.14
32735;BME280;19112;51.076;3.706;2023-02-14T13:36:11;103033.19;;;13.34;60.32
32735;BME280;19112;51.076;3.706;2023-02-14T13:38:58;102951.00;;;12.97;60.09
32735;BME280;19112;51.076;3.706;2023-02-14T13:41:26;102994.34;;;13.17;59.98
32735;BME280;19112;51.076;3.706;2023-02-14T13:46:48;103028.00;;;13.35;60.03
32735;BME280;19112;51.076;3.706;2023-02-14T13:49:26;102926.47;;;12.83;59.60
32735;BME280;19112;51.076;3.706;2023-02-14T13:51:59;102708.19;;;11.68;59.98
32735;BME280;19112;51.076;3.706;2023-02-14T13:54:45;102894.13;;;12.85;59.32
32735;BME280;19112;51.076;3.706;2023-02-14T13:57:31;103019.53;;;13.57;59.35
32735;BME280;19112;51.076;3.706;2023-02-14T14:02:53;103009.56;;;13.52;59.07
32735;BME280;19112;51.076;3.706;2023-02-14T14:10:46;103010.31;;;13.49;59.90
32735;BME280;19112;51.076;3.706;2023-02-14T14:16:25;102994.25;;;13.61;59.49
32735;BME280;19112;51.076;3.706;2023-02-14T14:21:35;102739.75;;;11.97;59.75
32735;BME280;19112;51.076;3.706;2023-02-14T14:24:30;103000.28;;;13.58;59.87
32735;BME280;19112;51.076;3.706;2023-02-14T14:27:00;102984.44;;;13.58;59.55
32735;BME280;19112;51.076;3.706;2023-02-14T14:32:33;102997.22;;;13.67;59.29
32735;BME280;19112;51.076;3.706;2023-02-14T14:37:47;102989.13;;;13.48;60.06
32735;BME280;19112;51.076;3.706;2023-02-14T14:40:23;102853.91;;;12.73;60.13
32735;BME280;19112;51.076;3.706;2023-02-14T14:42:50;102857.44;;;12.74;60.04
32735;BME280;19112;51.076;3.706;2023-02-14T14:45:28;102916.97;;;13.16;60.05
32735;BME280;19112;51.076;3.706;2023-02-14T14:47:58;102913.16;;;13.11;59.86
32735;BME280;19112;51.076;3.706;2023-02-14T14:50:30;103003.31;;;13.66;59.98
32735;BME280;19112;51.076;3.706;2023-02-14T14:53:05;102858.81;;;12.98;59.47
32735;BME280;19112;51.076;3.706;2023-02-14T14:55:36;102996.31;;;13.83;59.04
32735;BME280;19112;51.076;3.706;2023-02-14T14:58:06;102802.22;;;12.61;59.07
32735;BME280;19112;51.076;3.706;2023-02-14T15:00:51;102861.94;;;12.91;59.64
32735;BME280;19112;51.076;3.706;2023-02-14T15:03:23;102896.84;;;13.18;59.42
32735;BME280;19112;51.076;3.706;2023-02-14T15:05:50;102676.94;;;12.03;59.23
32735;BME280;19112;51.076;3.706;2023-02-14T15:13:42;102937.38;;;13.35;59.58
32735;BME280;19112;51.076;3.706;2023-02-14T15:16:27;102873.78;;;12.99;59.78
32735;BME280;19112;51.076;3.706;2023-02-14T15:19:04;102911.41;;;13.11;59.88
32735;BME280;19112;51.076;3.706;2023-02-14T15:21:32;102754.34;;;12.22;59.85
32735;BME280;19112;51.076;3.706;2023-02-14T15:23:58;102962.53;;;13.45;60.17
32735;BME280;19112;51.076;3.706;2023-02-14T15:26:34;102859.94;;;12.87;60.00
32735;BME280;19112;51.076;3.706;2023-02-14T15:29:04;102886.25;;;13.02;60.21
32735;BME280;19112;51.076;3.706;2023-02-14T15:31:34;102870.75;;;12.92;60.30
32735;BME280;19112;51.076;3.706;2023-02-14T15:34:02;102941.97;;;13.23;60.44
32735;BME280;19112;51.076;3.706;2023-02-14T15:36:31;102904.44;;;12.97;60.66
32735;BME280;19112;51.076;3.706;2023-02-14T15:39:02;102810.81;;;12.42;60.20
32735;BME280;19112;51.076;3.706;2023-02-14T15:41:28;102971.16;;;13.26;60.36
32735;BME280;19112;51.076;3.706;2023-02-14T15:43:56;102970.16;;;13.24;60.85